createdAt,value
2023-12-14T00:02:42.955Z,101042.00
2023-12-14T00:05:46.716Z,101050.69
2023-12-14T00:08:50.498Z,101053.25
2023-12-14T00:11:55.616Z,101059.28
2023-12-14T00:15:00.799Z,101058.44
2023-12-14T00:18:04.656Z,101065.34
2023-12-14T00:21:09.278Z,101063.63
2023-12-14T00:24:13.046Z,101059.31
2023-12-14T00:27:18.254Z,101063.63
2023-12-14T00:30:22.167Z,101069.66
2023-12-14T00:33:26.160Z,101068.81
2023-12-14T00:36:30.041Z,101075.72
2023-12-14T00:39:35.394Z,101069.66
2023-12-14T00:42:40.564Z,101060.19
2023-12-14T00:45:44.497Z,101061.03
2023-12-14T00:48:48.311Z,101063.59
2023-12-14T00:51:52.224Z,101064.47
2023-12-14T00:54:56.038Z,101077.47
2023-12-14T00:58:01.233Z,101081.78
2023-12-14T01:01:05.956Z,101079.16
2023-12-14T01:04:09.874Z,101078.31
2023-12-14T01:07:13.576Z,101088.69
2023-12-14T01:10:17.476Z,101086.13
2023-12-14T01:13:22.613Z,101097.34
2023-12-14T01:16:29.158Z,101091.28
2023-12-14T01:19:32.912Z,101102.50
2023-12-14T01:22:37.184Z,101111.19
2023-12-14T01:25:41.138Z,101118.06
2023-12-14T01:28:46.806Z,101130.19
2023-12-14T01:31:50.726Z,101135.38
2023-12-14T01:34:54.545Z,101130.19
2023-12-14T01:37:58.388Z,101138.81
2023-12-14T01:41:02.291Z,101134.53
2023-12-14T01:44:07.582Z,101130.19
2023-12-14T01:47:11.518Z,101128.47
2023-12-14T01:50:15.349Z,101134.50
2023-12-14T01:53:19.249Z,101128.47
2023-12-14T01:56:22.976Z,101132.78
2023-12-14T01:59:28.959Z,101144.91
2023-12-14T02:02:33.009Z,101131.94
2023-12-14T02:05:37.214Z,101139.69
2023-12-14T02:08:41.058Z,101146.59
2023-12-14T02:11:45.017Z,101136.25
2023-12-14T02:14:51.516Z,101147.50
2023-12-14T02:17:55.495Z,101152.66
2023-12-14T02:20:59.233Z,101147.50
2023-12-14T02:24:04.759Z,101158.72
2023-12-14T02:27:08.503Z,101168.22
2023-12-14T02:30:14.036Z,101169.94
2023-12-14T02:33:17.862Z,101184.63
2023-12-14T02:36:21.631Z,101186.38
2023-12-14T02:39:26.811Z,101188.97
2023-12-14T02:42:30.626Z,101201.94
2023-12-14T02:45:34.463Z,101214.91
2023-12-14T02:48:38.310Z,101216.59
2023-12-14T02:51:42.168Z,101220.09
2023-12-14T02:54:47.371Z,101223.56
2023-12-14T02:57:51.235Z,101230.47
2023-12-14T03:00:55.072Z,101228.75
2023-12-14T03:03:58.929Z,101241.69
2023-12-14T03:07:04.138Z,101245.19
2023-12-14T03:10:11.151Z,101242.59
2023-12-14T03:13:14.966Z,101252.97
2023-12-14T03:16:18.956Z,101256.41
2023-12-14T03:19:24.018Z,101253.84
2023-12-14T03:22:27.773Z,101265.94
2023-12-14T03:25:32.985Z,101264.22
2023-12-14T03:28:36.770Z,101260.75
2023-12-14T03:31:41.165Z,101256.41
2023-12-14T03:34:44.928Z,101265.06
2023-12-14T03:37:48.747Z,101273.72
2023-12-14T03:40:53.917Z,101271.13
2023-12-14T03:43:57.850Z,101269.41
2023-12-14T03:47:01.732Z,101272.00
2023-12-14T03:50:06.812Z,101272.84
2023-12-14T03:53:10.654Z,101284.09
2023-12-14T03:56:16.007Z,101284.13
2023-12-14T03:59:19.761Z,101296.19
2023-12-14T04:02:23.715Z,101298.78
2023-12-14T04:05:27.625Z,101304.88
2023-12-14T04:08:31.600Z,101311.78
2023-12-14T04:11:36.980Z,101310.91
2023-12-14T04:14:40.689Z,101313.50
2023-12-14T04:17:44.465Z,101327.34
2023-12-14T04:20:48.252Z,101315.25
2023-12-14T04:23:52.011Z,101328.22
2023-12-14T04:26:57.111Z,101332.56
2023-12-14T04:30:00.874Z,101347.25
2023-12-14T04:33:04.859Z,101340.28
2023-12-14T04:36:09.576Z,101346.38
2023-12-14T04:39:13.524Z,101352.44
2023-12-14T04:42:18.863Z,101351.59
2023-12-14T04:45:22.672Z,101356.75
2023-12-14T04:48:26.514Z,101361.94
2023-12-14T04:51:30.333Z,101364.53
2023-12-14T04:54:34.210Z,101372.28
2023-12-14T04:57:39.463Z,101387.00
2023-12-14T05:00:43.756Z,101400.81
2023-12-14T05:03:47.563Z,101402.56
2023-12-14T05:06:51.326Z,101399.97
2023-12-14T05:09:55.199Z,101407.75
2023-12-14T05:13:00.338Z,101419.00
2023-12-14T05:16:04.376Z,101431.09
2023-12-14T05:19:08.281Z,101436.28
2023-12-14T05:22:12.615Z,101435.44
2023-12-14T05:25:16.974Z,101444.06
2023-12-14T05:28:22.070Z,101452.69
2023-12-14T05:31:26.166Z,101467.41
2023-12-14T05:34:29.957Z,101472.59
2023-12-14T05:37:34.435Z,101476.94
2023-12-14T05:40:38.226Z,101489.06
2023-12-14T05:43:43.828Z,101496.84
2023-12-14T05:46:47.779Z,101495.09
2023-12-14T05:49:51.579Z,101495.09
2023-12-14T05:52:55.553Z,101504.63
2023-12-14T05:56:00.512Z,101506.34
2023-12-14T05:59:05.865Z,101519.31
2023-12-14T06:02:09.808Z,101515.03
2023-12-14T06:05:14.755Z,101515.88
2023-12-14T06:08:18.703Z,101520.19
2023-12-14T06:11:22.754Z,101521.03
2023-12-14T06:14:28.310Z,101525.41
2023-12-14T06:17:33.206Z,101524.56
2023-12-14T06:20:36.954Z,101521.09
2023-12-14T06:23:40.801Z,101532.31
2023-12-14T06:26:45.324Z,101532.34
2023-12-14T06:29:50.489Z,101541.88
2023-12-14T06:32:54.307Z,101540.13
2023-12-14T06:35:58.149Z,101544.47
2023-12-14T06:39:04.111Z,101547.06
2023-12-14T06:42:08.170Z,101547.91
2023-12-14T06:45:13.751Z,101551.38
2023-12-14T06:48:17.623Z,101560.06
2023-12-14T06:51:21.469Z,101560.97
2023-12-14T06:54:25.347Z,101559.22
2023-12-14T06:57:30.230Z,101558.38
2023-12-14T07:00:35.809Z,101565.31
2023-12-14T07:03:42.183Z,101566.16
2023-12-14T07:06:52.744Z,101575.69
2023-12-14T07:09:56.488Z,101583.47
2023-12-14T07:13:00.543Z,101573.97
2023-12-14T07:16:09.294Z,101573.94
2023-12-14T07:19:13.158Z,101585.19
2023-12-14T07:22:16.930Z,101584.31
2023-12-14T07:25:20.741Z,101598.13
2023-12-14T07:28:24.895Z,101608.50
2023-12-14T07:31:30.359Z,101607.66
2023-12-14T07:34:34.257Z,101613.69
2023-12-14T07:37:38.073Z,101633.56
2023-12-14T07:40:42.394Z,101641.31
2023-12-14T07:43:46.194Z,101657.72
2023-12-14T07:46:51.388Z,101665.50
2023-12-14T07:49:55.931Z,101669.78
2023-12-14T07:52:59.871Z,101681.91
2023-12-14T07:56:04.560Z,101690.53
2023-12-14T07:59:08.966Z,101700.94
2023-12-14T08:02:14.397Z,101713.88
2023-12-14T08:05:18.167Z,101720.75
2023-12-14T08:08:21.983Z,101720.81
2023-12-14T08:11:25.817Z,101730.38
2023-12-14T08:14:29.684Z,101738.97
2023-12-14T08:17:34.930Z,101745.13
2023-12-14T08:20:38.713Z,101748.53
2023-12-14T08:23:42.469Z,101755.50
2023-12-14T08:26:46.782Z,101763.34
2023-12-14T08:29:50.530Z,101760.66
2023-12-14T08:32:55.718Z,101764.19
2023-12-14T08:35:59.909Z,101759.00
2023-12-14T08:39:04.069Z,101768.56
2023-12-14T08:42:07.871Z,101771.13
2023-12-14T08:45:26.134Z,101761.63
2023-12-14T08:48:31.273Z,101770.34
2023-12-14T08:51:35.744Z,101775.47
2023-12-14T08:54:39.703Z,101771.94
2023-12-14T08:57:43.479Z,101785.13
2023-12-14T09:00:47.902Z,101785.97
2023-12-14T09:03:53.288Z,101786.03
2023-12-14T09:06:58.099Z,101787.81
2023-12-14T09:10:04.440Z,101782.66
2023-12-14T09:13:10.837Z,101782.72
2023-12-14T09:16:15.074Z,101785.28
2023-12-14T09:19:20.711Z,101783.59
2023-12-14T09:22:24.491Z,101794.81
2023-12-14T09:25:28.284Z,101790.38
2023-12-14T09:28:32.156Z,101800.03
2023-12-14T09:31:36.420Z,101799.28
2023-12-14T09:34:42.173Z,101807.78
2023-12-14T09:37:45.929Z,101813.81
2023-12-14T09:40:49.741Z,101807.78
2023-12-14T09:43:54.534Z,101817.22
2023-12-14T09:47:01.450Z,101824.13
2023-12-14T09:50:09.235Z,101828.44
2023-12-14T09:53:13.624Z,101826.88
2023-12-14T09:56:17.499Z,101837.19
2023-12-14T09:59:21.594Z,101829.50
2023-12-14T10:02:29.411Z,101827.66
2023-12-14T10:05:34.754Z,101836.25
2023-12-14T10:08:38.584Z,101842.28
2023-12-14T10:11:43.039Z,101850.16
2023-12-14T10:14:46.974Z,101852.06
2023-12-14T10:17:55.496Z,101858.94
2023-12-14T10:21:00.801Z,101856.38
2023-12-14T10:24:05.175Z,101860.81
2023-12-14T10:27:09.821Z,101856.38
2023-12-14T10:30:16.682Z,101867.69
2023-12-14T10:33:20.632Z,101870.25
2023-12-14T10:36:28.601Z,101872.03
2023-12-14T10:39:33.874Z,101870.28
2023-12-14T10:42:39.731Z,101873.06
2023-12-14T10:45:50.118Z,101885.81
2023-12-14T10:48:54.416Z,101880.63
2023-12-14T10:52:02.351Z,101892.00
2023-12-14T10:55:13.566Z,101891.28
2023-12-14T10:58:17.351Z,101892.91
2023-12-14T11:01:25.288Z,101891.81
2023-12-14T11:04:29.498Z,101891.81
2023-12-14T11:07:58.331Z,101892.69
2023-12-14T11:11:11.512Z,101896.25
2023-12-14T11:14:21.411Z,101906.66
2023-12-14T11:17:25.595Z,101905.78
2023-12-14T11:20:29.959Z,101906.75
2023-12-14T11:23:40.310Z,101910.22
2023-12-14T11:26:44.356Z,101904.06
2023-12-14T11:29:50.063Z,101923.09
2023-12-14T11:32:55.766Z,101916.19
2023-12-14T11:35:59.613Z,101915.59
2023-12-14T11:39:06.708Z,101917.41
2023-12-14T11:42:11.942Z,101927.03
2023-12-14T11:45:15.876Z,101929.41
2023-12-14T11:48:21.718Z,101930.25
2023-12-14T11:51:27.022Z,101929.44
2023-12-14T11:54:32.378Z,101931.22
2023-12-14T11:57:36.947Z,101926.97
2023-12-14T12:00:41.243Z,101929.41
2023-12-14T12:03:46.145Z,101933.88
2023-12-14T12:06:49.956Z,101933.78
2023-12-14T12:09:55.175Z,101932.03
2023-12-14T12:13:03.812Z,101935.44
2023-12-14T12:16:07.972Z,101938.09
2023-12-14T12:19:11.844Z,101933.88
2023-12-14T12:22:15.677Z,101933.91
2023-12-14T12:25:20.858Z,101935.59
2023-12-14T12:28:24.591Z,101936.41
2023-12-14T12:31:28.294Z,101935.59
2023-12-14T12:34:32.092Z,101934.63
2023-12-14T12:37:36.190Z,101935.53
2023-12-14T12:40:41.524Z,101937.13
2023-12-14T12:43:45.364Z,101937.19
2023-12-14T12:46:58.063Z,101930.28
2023-12-14T12:50:10.810Z,101932.06
2023-12-14T12:53:14.705Z,101933.72
2023-12-14T12:56:20.293Z,101938.16
2023-12-14T12:59:24.317Z,101935.47
2023-12-14T13:02:28.126Z,101938.88
2023-12-14T13:05:31.939Z,101951.00
2023-12-14T13:08:35.807Z,101945.00
2023-12-14T13:11:41.023Z,101946.78
2023-12-14T13:14:45.072Z,101960.59
2023-12-14T13:17:48.902Z,101958.84
2023-12-14T13:20:52.729Z,101957.09
2023-12-14T13:23:57.832Z,101964.09
2023-12-14T13:27:03.097Z,101964.91
2023-12-14T13:30:09.499Z,101971.72
2023-12-14T13:33:13.974Z,101980.44
2023-12-14T13:36:19.926Z,101989.94
2023-12-14T13:39:24.056Z,101990.78
2023-12-14T13:42:29.280Z,102002.91
2023-12-14T13:45:33.007Z,102000.44
2023-12-14T13:48:36.946Z,102003.75
2023-12-14T13:51:40.771Z,102008.94
2023-12-14T13:54:44.598Z,102011.63
2023-12-14T13:57:50.063Z,102011.53
2023-12-14T14:00:54.104Z,102010.69
2023-12-14T14:03:57.896Z,102023.72
2023-12-14T14:07:01.900Z,102022.81
2023-12-14T14:10:06.963Z,102029.84
2023-12-14T14:13:12.178Z,102050.63
2023-12-14T14:16:16.962Z,102063.53
2023-12-14T14:19:20.841Z,102068.56
2023-12-14T14:22:25.307Z,102076.44
2023-12-14T14:25:29.234Z,102071.38
2023-12-14T14:28:34.427Z,102079.97
2023-12-14T14:31:38.268Z,102080.78
2023-12-14T14:34:42.140Z,102092.00
2023-12-14T14:37:47.639Z,102104.78
2023-12-14T14:40:51.612Z,102107.38
2023-12-14T14:43:56.791Z,102104.84
2023-12-14T14:47:00.916Z,102116.84
2023-12-14T14:50:08.245Z,102134.84
2023-12-14T14:53:14.125Z,102149.66
2023-12-14T14:56:17.962Z,102152.97
2023-12-14T14:59:23.788Z,102155.59
2023-12-14T15:02:27.938Z,102152.22
2023-12-14T15:05:32.859Z,102165.25
2023-12-14T15:08:36.744Z,102175.56
2023-12-14T15:11:40.469Z,102179.03
2023-12-14T15:14:46.104Z,102178.94
2023-12-14T15:17:49.850Z,102182.44
2023-12-14T15:20:54.024Z,102181.47
2023-12-14T15:23:57.815Z,102184.03
2023-12-14T15:27:01.673Z,102201.28
2023-12-14T15:30:10.291Z,102204.56
2023-12-14T15:33:14.784Z,102214.84
2023-12-14T15:36:18.757Z,102210.56
2023-12-14T15:39:22.542Z,102220.88
2023-12-14T15:42:26.366Z,102237.28
2023-12-14T15:45:34.479Z,102238.03
2023-12-14T15:48:38.673Z,102244.91
2023-12-14T15:51:43.056Z,102246.75
2023-12-14T15:54:46.820Z,102264.13
2023-12-14T15:57:50.655Z,102275.28
2023-12-14T16:00:55.870Z,102280.53
2023-12-14T16:03:59.728Z,102274.44
2023-12-14T16:07:03.523Z,102287.44
2023-12-14T16:10:09.206Z,102291.75
2023-12-14T16:13:13.105Z,102295.06
2023-12-14T16:16:18.234Z,102297.72
2023-12-14T16:19:22.334Z,102303.72
2023-12-14T16:22:26.019Z,102301.94
2023-12-14T16:25:29.777Z,102312.13
2023-12-14T16:28:33.652Z,102321.50
2023-12-14T16:31:44.724Z,102331.84
2023-12-14T16:34:48.538Z,102330.97
2023-12-14T16:37:52.634Z,102329.94
2023-12-14T16:40:56.575Z,102336.88
2023-12-14T16:44:00.364Z,102340.53
2023-12-14T16:47:08.304Z,102344.59
2023-12-14T16:50:12.997Z,102349.78
2023-12-14T16:53:17.010Z,102352.28
2023-12-14T16:56:20.971Z,102353.09
2023-12-14T16:59:24.819Z,102351.38
2023-12-14T17:02:29.982Z,102361.72
2023-12-14T17:05:35.409Z,102368.59
2023-12-14T17:08:39.387Z,102386.44
2023-12-14T17:11:43.751Z,102389.75
2023-12-14T17:14:47.770Z,102399.28
2023-12-14T17:17:52.980Z,102406.13
2023-12-14T17:20:56.690Z,102412.97
2023-12-14T17:24:01.782Z,102425.22
2023-12-14T17:27:06.240Z,102434.03
2023-12-14T17:30:11.565Z,102434.97
2023-12-14T17:33:16.982Z,102445.53
2023-12-14T17:36:20.880Z,102455.91
2023-12-14T17:39:24.696Z,102463.78
2023-12-14T17:42:28.533Z,102464.78
2023-12-14T17:45:41.118Z,102473.63
2023-12-14T17:48:46.663Z,102473.63
2023-12-14T17:51:50.484Z,102474.53
2023-12-14T17:54:54.361Z,102472.13
2023-12-14T17:57:58.163Z,102479.09
2023-12-14T18:01:05.640Z,102479.97
2023-12-14T18:04:11.529Z,102484.25
2023-12-14T18:07:17.178Z,102486.78
2023-12-14T18:10:22.093Z,102498.00
2023-12-14T18:13:26.630Z,102497.16
2023-12-14T18:16:30.891Z,102500.66
2023-12-14T18:19:36.113Z,102512.84
2023-12-14T18:22:39.919Z,102512.91
2023-12-14T18:25:47.326Z,102510.34
2023-12-14T18:28:51.333Z,102517.38
2023-12-14T18:31:55.144Z,102527.03
2023-12-14T18:35:00.359Z,102524.47
2023-12-14T18:38:04.267Z,102537.41
2023-12-14T18:41:08.415Z,102531.41
2023-12-14T18:44:12.713Z,102536.63
2023-12-14T18:47:16.873Z,102539.28
2023-12-14T18:50:22.115Z,102541.81
2023-12-14T18:53:25.917Z,102549.59
2023-12-14T18:56:32.536Z,102558.25
2023-12-14T18:59:37.473Z,102551.38
2023-12-14T19:02:41.464Z,102556.84
2023-12-14T19:05:47.003Z,102554.19
2023-12-14T19:08:51.805Z,102561.94
2023-12-14T19:11:55.538Z,102561.06
2023-12-14T19:14:59.325Z,102568.03
2023-12-14T19:18:03.539Z,102567.22
2023-12-14T19:21:09.097Z,102569.94
2023-12-14T19:24:12.812Z,102573.41
2023-12-14T19:27:16.748Z,102577.75
2023-12-14T19:30:22.283Z,102574.28
2023-12-14T19:33:26.404Z,102582.06
2023-12-14T19:36:33.179Z,102588.97
2023-12-14T19:39:37.195Z,102592.44
2023-12-14T19:42:40.970Z,102590.75
2023-12-14T19:45:44.965Z,102607.94
2023-12-14T19:48:48.843Z,102606.19
2023-12-14T19:51:54.154Z,102601.75
2023-12-14T19:54:58.880Z,102618.25
2023-12-14T19:58:02.815Z,102621.63
2023-12-14T20:01:06.998Z,102613.78
2023-12-14T20:04:12.938Z,102617.97
2023-12-14T20:07:20.397Z,102620.50
2023-12-14T20:10:24.272Z,102622.09
2023-12-14T20:13:28.655Z,102625.53
2023-12-14T20:16:32.472Z,102636.69
2023-12-14T20:19:36.224Z,102645.31
2023-12-14T20:22:41.910Z,102653.94
2023-12-14T20:25:46.059Z,102661.72
2023-12-14T20:28:50.202Z,102663.41
2023-12-14T20:31:54.010Z,102672.97
2023-12-14T20:34:57.942Z,102674.66
2023-12-14T20:38:07.787Z,102678.06
2023-12-14T20:41:11.707Z,102681.34
2023-12-14T20:44:15.563Z,102679.63
2023-12-14T20:47:19.354Z,102677.06
2023-12-14T20:50:23.592Z,102684.69
2023-12-14T20:53:28.878Z,102688.94
2023-12-14T20:56:32.796Z,102696.53
2023-12-14T20:59:36.604Z,102696.44
2023-12-14T21:02:41.113Z,102704.94
2023-12-14T21:05:48.867Z,102703.28
2023-12-14T21:08:54.718Z,102704.97
2023-12-14T21:11:58.536Z,102710.97
2023-12-14T21:15:02.355Z,102723.97
2023-12-14T21:18:06.442Z,102718.03
2023-12-14T21:21:10.435Z,102723.22
2023-12-14T21:24:18.633Z,102725.00
2023-12-14T21:27:40.194Z,102722.56
2023-12-14T21:30:44.629Z,102733.84
2023-12-14T21:33:48.444Z,102733.00
2023-12-14T21:36:52.295Z,102738.25
2023-12-14T21:39:57.453Z,102746.09
2023-12-14T21:43:01.279Z,102737.53
2023-12-14T21:46:05.269Z,102733.09
2023-12-14T21:49:16.725Z,102733.16
2023-12-14T21:52:22.814Z,102728.94
2023-12-14T21:55:28.191Z,102722.06
2023-12-14T21:58:31.918Z,102721.06
2023-12-14T22:01:36.149Z,102723.53
2023-12-14T22:04:39.983Z,102727.13
2023-12-14T22:07:43.817Z,102729.72
2023-12-14T22:10:49.107Z,102732.38
2023-12-14T22:13:52.958Z,102737.53
2023-12-14T22:16:58.447Z,102735.94
2023-12-14T22:20:02.253Z,102729.72
2023-12-14T22:23:06.119Z,102724.53
2023-12-14T22:26:11.416Z,102729.72
2023-12-14T22:29:15.227Z,102727.97
2023-12-14T22:32:19.043Z,102726.38
2023-12-14T22:35:23.678Z,102722.00
2023-12-14T22:38:27.987Z,102720.19
2023-12-14T22:41:33.252Z,102720.22
2023-12-14T22:44:37.070Z,102722.03
2023-12-14T22:47:41.298Z,102731.59
2023-12-14T22:50:45.470Z,102720.22
2023-12-14T22:53:49.712Z,102726.25
2023-12-14T22:56:56.340Z,102727.22
2023-12-14T23:00:00.161Z,102732.44
2023-12-14T23:03:03.997Z,102722.97
2023-12-14T23:06:08.924Z,102732.53
2023-12-14T23:09:14.237Z,102734.38
2023-12-14T23:12:20.742Z,102737.88
2023-12-14T23:15:25.570Z,102733.50
2023-12-14T23:18:29.533Z,102730.13
2023-12-14T23:21:33.390Z,102721.41
2023-12-14T23:24:37.227Z,102728.28
2023-12-14T23:27:42.492Z,102717.84
2023-12-14T23:30:46.250Z,102718.78
2023-12-14T23:33:50.152Z,102726.53
2023-12-14T23:36:54.220Z,102718.81
2023-12-14T23:39:58.058Z,102723.28
2023-12-14T23:43:03.386Z,102720.72
2023-12-14T23:46:07.895Z,102721.44
2023-12-14T23:49:11.739Z,102731.19
2023-12-14T23:52:15.625Z,102735.53
2023-12-14T23:55:19.392Z,102731.16
2023-12-14T23:58:24.603Z,102730.31
